Time;durP1;ratioP1;P1;durP2;ratioP2;P2;SDS_P1;SDS_P2;PMS_P1;PMS_P2;Temp;Humidity;BMP_temperature;BMP_pressure;BME280_temperature;BME280_humidity;BME280_pressure;Samples;Min_cycle;Max_cycle;Signal;HPM_P1;HPM_P2
2022/03/13 00:00:11;;;;;;;52.60;17.17;;;;;;;-1.18;60.20;99947.87;4339018;32;20477;-74
2022/03/13 00:03:01;;;;;;;50.75;17.42;;;;;;;-1.59;59.70;99886.72;4337910;32;20066;-74
2022/03/13 00:05:28;;;;;;;61.53;18.40;;;;;;;-1.25;60.88;99949.44;4359038;32;20056;-74
2022/03/13 00:08:02;;;;;;;53.92;17.12;;;;;;;-1.30;61.11;99944.59;4378817;32;20039;-74
2022/03/13 00:10:30;;;;;;;52.25;16.80;;;;;;;-1.37;62.36;99948.84;4362087;32;20039;-75
2022/03/13 00:12:56;;;;;;;45.12;14.38;;;;;;;-1.40;63.45;99946.50;4353799;32;20052;-73
2022/03/13 00:15:38;;;;;;;47.78;18.08;;;;;;;-1.47;64.56;99938.34;4366437;32;20126;-73
2022/03/13 00:18:05;;;;;;;45.33;15.68;;;;;;;-1.49;66.20;99950.84;4346169;32;20043;-73
2022/03/13 00:20:32;;;;;;;57.95;17.60;;;;;;;-1.40;65.42;99943.03;4366650;32;20032;-74
2022/03/13 00:22:58;;;;;;;57.30;17.55;;;;;;;-1.40;65.57;99953.59;4346080;32;20062;-74
2022/03/13 00:25:26;;;;;;;47.60;16.83;;;;;;;-1.34;64.78;99952.97;4340135;32;20044;-74
2022/03/13 00:27:52;;;;;;;50.78;18.35;;;;;;;-1.75;64.85;99886.56;4343215;32;20032;-74
2022/03/13 00:30:18;;;;;;;46.80;17.20;;;;;;;-1.56;65.72;99923.38;4358814;32;20016;-73
2022/03/13 00:32:45;;;;;;;51.70;17.02;;;;;;;-1.55;66.93;99940.87;4352974;32;20065;-73
2022/03/13 00:35:13;;;;;;;62.70;17.48;;;;;;;-1.63;66.91;99943.44;4355642;32;20278;-73
2022/03/13 00:37:39;;;;;;;49.90;18.08;;;;;;;-1.71;68.56;99932.78;4354193;32;20076;-73
2022/03/13 00:40:06;;;;;;;57.33;18.27;;;;;;;-1.81;69.78;99926.75;4344085;32;20091;-73
2022/03/13 00:42:32;;;;;;;54.50;18.87;;;;;;;-1.85;69.77;99929.69;4340313;32;20041;-74
2022/03/13 00:44:59;;;;;;;60.95;18.50;;;;;;;-1.93;72.10;99926.09;4338671;32;20082;-74
2022/03/13 00:47:25;;;;;;;56.42;18.17;;;;;;;-1.98;73.02;99921.25;4343766;32;20049;-73
2022/03/13 00:49:52;;;;;;;55.33;17.92;;;;;;;-2.32;73.98;99869.06;4352157;32;20098;-74
2022/03/13 00:52:18;;;;;;;62.42;17.37;;;;;;;-2.11;75.19;99915.50;4327664;32;20050;-74
2022/03/13 00:54:45;;;;;;;62.60;18.12;;;;;;;-2.16;75.57;99923.03;4351807;32;20367;-74
2022/03/13 00:57:12;;;;;;;55.95;17.15;;;;;;;-2.26;77.58;99926.53;4354595;32;20420;-74
2022/03/13 00:59:38;;;;;;;43.42;16.95;;;;;;;-2.37;80.46;99919.59;4356529;32;20076;-74
2022/03/13 01:02:05;;;;;;;56.83;17.83;;;;;;;-2.80;82.15;99872.69;4352281;32;20047;-73
2022/03/13 01:04:32;;;;;;;56.88;19.00;;;;;;;-2.59;83.12;99925.22;4344221;32;20053;-75
2022/03/13 01:07:05;;;;;;;50.20;16.17;;;;;;;-2.77;86.34;99911.97;4340741;32;20088;-73
2022/03/13 01:09:33;;;;;;;51.83;16.80;;;;;;;-2.76;86.82;99922.38;4348769;32;20408;-73
2022/03/13 01:11:59;;;;;;;55.90;16.25;;;;;;;-2.81;86.04;99929.03;4354738;32;20408;-74
2022/03/13 01:14:25;;;;;;;49.33;16.30;;;;;;;-2.97;84.97;99912.00;4354930;32;20065;-73
2022/03/13 01:17:07;;;;;;;64.45;17.35;;;;;;;-2.86;85.29;99923.34;4351560;32;20070;-75
2022/03/13 01:19:34;;;;;;;52.33;16.80;;;;;;;-3.23;86.77;99868.75;4348795;32;20105;-73
2022/03/13 01:22:00;;;;;;;63.95;16.50;;;;;;;-2.94;89.84;99926.69;4354445;32;20047;-73
2022/03/13 01:24:31;;;;;;;52.85;16.85;;;;;;;-2.98;91.01;99926.13;4354260;32;20073;-73
2022/03/13 01:27:01;;;;;;;51.92;17.55;;;;;;;-3.29;91.16;99873.63;4352967;32;20078;-73
2022/03/13 01:29:30;;;;;;;50.92;16.40;;;;;;;-3.39;92.60;99866.69;4351925;32;20472;-73
2022/03/13 01:31:58;;;;;;;55.83;17.23;;;;;;;-3.40;92.06;99865.84;4343671;32;20035;-74
2022/03/13 01:34:35;;;;;;;47.22;16.48;;;;;;;-3.11;91.16;99915.06;4350521;32;20053;-73
2022/03/13 01:37:10;;;;;;;51.97;15.85;;;;;;;-3.14;92.28;99915.34;4345411;32;20069;-74
2022/03/13 01:39:37;;;;;;;47.03;15.32;;;;;;;-3.17;92.46;99920.88;4334547;33;20040;-73
2022/03/13 01:42:04;;;;;;;42.28;13.82;;;;;;;-3.25;93.90;99912.84;4353837;32;20048;-73
2022/03/13 01:44:31;;;;;;;42.78;13.32;;;;;;;-3.21;95.70;99922.13;4352452;32;20165;-75
2022/03/13 01:46:58;;;;;;;54.92;16.17;;;;;;;-3.54;97.57;99867.09;4356716;32;20051;-74
2022/03/13 01:49:24;;;;;;;49.17;15.80;;;;;;;-3.23;97.35;99921.44;4354797;32;20081;-74
2022/03/13 01:51:51;;;;;;;48.65;16.35;;;;;;;-3.39;97.58;99901.75;4354525;32;20430;-73
2022/03/13 01:54:17;;;;;;;48.58;16.12;;;;;;;-3.47;97.37;99893.69;4354621;32;20048;-74
2022/03/13 01:56:44;;;;;;;55.35;17.45;;;;;;;-3.34;97.68;99915.31;4348970;32;20122;-74
2022/03/13 01:59:14;;;;;;;47.90;17.98;;;;;;;-3.37;100.00;99915.59;4347191;32;20036;-74
2022/03/13 02:01:42;;;;;;;44.72;17.40;;;;;;;-3.67;100.00;99864.75;4346812;33;20043;-73
2022/03/13 02:04:12;;;;;;;44.20;16.98;;;;;;;-3.79;100.00;99846.59;4358339;32;20083;-73
2022/03/13 02:06:39;;;;;;;38.60;16.10;;;;;;;-3.45;100.00;99918.09;4341664;33;20040;-74
2022/03/13 02:09:07;;;;;;;50.10;16.87;;;;;;;-3.74;100.00;99870.69;4347479;33;20040;-74
2022/03/13 02:11:38;;;;;;;42.33;15.45;;;;;;;-3.49;100.00;99911.44;4355530;32;20061;-74
2022/03/13 02:14:05;;;;;;;41.05;15.57;;;;;;;-3.88;100.00;99848.22;4366913;32;20454;-75
2022/03/13 02:16:32;;;;;;;48.28;15.63;;;;;;;-3.66;100.00;99890.06;4368651;32;20056;-74
2022/03/13 02:18:59;;;;;;;51.45;15.05;;;;;;;-3.65;100.00;99891.75;4368507;32;20054;-74
2022/03/13 02:21:28;;;;;;;39.25;14.90;;;;;;;-3.69;100.00;99890.34;4369439;32;20350;-73
2022/03/13 02:23:58;;;;;;;44.60;14.63;;;;;;;-3.62;100.00;99895.06;4368187;32;20035;-74
2022/03/13 02:26:25;;;;;;;39.22;16.27;;;;;;;-3.58;100.00;99899.94;4354615;32;20085;-73
2022/03/13 02:28:55;;;;;;;41.10;16.33;;;;;;;-3.51;100.00;99897.56;4359263;32;20047;-74
2022/03/13 02:31:34;;;;;;;36.40;14.07;;;;;;;-3.52;100.00;99901.19;4365676;32;20065;-74
2022/03/13 02:34:01;;;;;;;48.40;15.18;;;;;;;-3.58;100.00;99905.19;4363832;32;20047;-73
2022/03/13 02:36:30;;;;;;;37.58;15.57;;;;;;;-3.55;100.00;99896.19;4371305;32;20159;-74
2022/03/13 02:39:00;;;;;;;38.42;13.27;;;;;;;-3.57;100.00;99906.03;4372855;32;20042;-73
2022/03/13 02:41:27;;;;;;;39.78;15.07;;;;;;;-3.60;100.00;99886.06;4369618;32;20429;-74
2022/03/13 02:43:54;;;;;;;51.90;15.48;;;;;;;-3.59;100.00;99889.53;4371218;32;20081;-75
2022/03/13 02:46:23;;;;;;;39.55;14.77;;;;;;;-3.60;100.00;99887.88;4372342;32;20047;-74
2022/03/13 02:48:50;;;;;;;43.50;14.00;;;;;;;-3.62;100.00;99897.69;4368889;32;20093;-74
2022/03/13 02:51:17;;;;;;;41.58;13.65;;;;;;;-3.92;100.00;99846.84;4358815;32;20094;-74
2022/03/13 02:53:44;;;;;;;34.75;13.70;;;;;;;-4.41;100.00;99771.28;4357884;32;20405;-73
2022/03/13 02:56:11;;;;;;;40.65;15.00;;;;;;;-3.76;100.00;99881.34;4355684;32;20073;-74
2022/03/13 02:58:37;;;;;;;36.25;14.38;;;;;;;-3.72;100.00;99895.06;4344949;32;20197;-73
2022/03/13 03:01:03;;;;;;;42.75;13.35;;;;;;;-4.11;100.00;99835.31;4362469;32;20081;-74
2022/03/13 03:03:30;;;;;;;35.95;13.73;;;;;;;-3.72;100.00;99901.19;4370077;32;20128;-74
2022/03/13 03:05:56;;;;;;;49.25;14.73;;;;;;;-4.03;100.00;99861.75;4372662;32;20069;-74
2022/03/13 03:08:23;;;;;;;42.45;14.13;;;;;;;-4.11;100.00;99858.97;4370955;32;20047;-74
2022/03/13 03:10:49;;;;;;;46.85;15.52;;;;;;;-3.67;100.00;99898.09;4353352;32;20074;-74
2022/03/13 03:13:16;;;;;;;35.45;14.73;;;;;;;-3.99;100.00;99861.50;4369200;32;20080;-74
2022/03/13 03:15:43;;;;;;;40.92;16.62;;;;;;;-3.77;100.00;99898.09;4367136;32;20069;-74
2022/03/13 03:18:10;;;;;;;40.72;14.90;;;;;;;-3.76;100.00;99899.78;4357410;32;20164;-74
2022/03/13 03:20:38;;;;;;;44.55;14.32;;;;;;;-3.75;100.00;99909.34;4346161;32;20073;-74
2022/03/13 03:23:04;;;;;;;42.10;15.52;;;;;;;-4.12;100.00;99859.94;4356543;32;20395;-74
2022/03/13 03:25:31;;;;;;;47.55;15.45;;;;;;;-4.17;100.00;99862.16;4359820;32;20450;-74
2022/03/13 03:27:58;;;;;;;46.33;14.13;;;;;;;-3.93;100.00;99909.13;4371510;32;20364;-74
2022/03/13 03:30:29;;;;;;;43.58;15.73;;;;;;;-4.12;100.00;99878.34;4365111;32;20060;-75
2022/03/13 03:32:56;;;;;;;36.05;14.05;;;;;;;-4.01;100.00;99894.03;4341330;33;20509;-74
2022/03/13 03:35:25;;;;;;;41.42;13.15;;;;;;;-4.05;100.00;99900.53;4342212;33;20070;-74
2022/03/13 03:37:53;;;;;;;45.80;15.52;;;;;;;-4.03;100.00;99898.59;4340493;33;20073;-74
2022/03/13 03:40:25;;;;;;;39.35;14.45;;;;;;;-4.39;100.00;99844.78;4354446;32;20073;-75
2022/03/13 03:42:55;;;;;;;39.33;14.13;;;;;;;-4.06;100.00;99906.75;4371401;32;20405;-74
2022/03/13 03:45:21;;;;;;;39.47;13.05;;;;;;;-4.16;100.00;99878.75;4358083;32;20069;-74
2022/03/13 03:47:48;;;;;;;35.70;13.30;;;;;;;-4.65;100.00;99807.62;4357265;32;20040;-75
2022/03/13 03:50:15;;;;;;;41.80;14.00;;;;;;;-4.40;100.00;99849.22;4356454;32;20057;-75
2022/03/13 03:52:41;;;;;;;34.38;12.48;;;;;;;-4.19;100.00;99890.38;4355627;32;20080;-73
2022/03/13 03:55:08;;;;;;;29.87;13.93;;;;;;;-4.18;100.00;99894.66;4355845;32;20756;-72
2022/03/13 03:57:35;;;;;;;50.10;15.80;;;;;;;-4.30;100.00;99869.44;4371000;32;20062;-74
2022/03/13 04:00:05;;;;;;;43.00;15.25;;;;;;;-4.34;100.00;99862.78;4361092;32;20064;-74
2022/03/13 04:02:41;;;;;;;45.75;15.88;;;;;;;-4.22;100.00;99882.75;4355874;32;20075;-74
2022/03/13 04:05:09;;;;;;;43.05;15.05;;;;;;;-4.10;100.00;99892.22;4361685;32;20075;-74
2022/03/13 04:07:38;;;;;;;41.53;13.85;;;;;;;-4.10;100.00;99902.75;4328237;33;20308;-74
2022/03/13 04:10:07;;;;;;;44.42;14.85;;;;;;;-4.46;100.00;99839.22;4342048;32;20068;-73
2022/03/13 04:12:34;;;;;;;41.35;14.15;;;;;;;-4.10;100.00;99886.97;4368001;32;20097;-74
2022/03/13 04:15:02;;;;;;;42.97;13.27;;;;;;;-4.19;100.00;99866.72;4371293;32;20077;-74
2022/03/13 04:17:29;;;;;;;29.67;10.98;;;;;;;-4.45;100.00;99825.13;4369939;32;20061;-73
2022/03/13 04:19:55;;;;;;;36.95;13.18;;;;;;;-4.10;100.00;99896.63;4358290;32;20402;-74
2022/03/13 04:22:22;;;;;;;39.65;12.32;;;;;;;-4.06;100.00;99888.34;4368376;32;20409;-74
2022/03/13 04:24:49;;;;;;;32.92;10.80;;;;;;;-4.36;100.00;99838.44;4341962;32;20032;-73
2022/03/13 04:27:15;;;;;;;37.45;11.12;;;;;;;-4.30;100.00;99849.22;4356688;32;20052;-74
2022/03/13 04:29:42;;;;;;;34.88;11.48;;;;;;;-4.36;100.00;99827.91;4364921;32;20440;-74
2022/03/13 04:32:08;;;;;;;27.75;11.40;;;;;;;-4.03;100.00;99882.00;4369743;32;20060;-73
2022/03/13 04:34:36;;;;;;;28.02;10.30;;;;;;;-3.97;100.00;99891.97;4370366;32;20061;-75
2022/03/13 04:37:03;;;;;;;41.60;11.90;;;;;;;-4.00;100.00;99876.47;4356766;32;20042;-73
2022/03/13 04:39:35;;;;;;;36.67;11.82;;;;;;;-3.90;100.00;99894.91;4356273;32;20063;-74
2022/03/13 04:42:06;;;;;;;34.17;12.10;;;;;;;-4.29;100.00;99821.13;4356133;32;20031;-74
2022/03/13 04:44:33;;;;;;;35.45;13.05;;;;;;;-3.91;100.00;99890.59;4356074;32;20101;-74
2022/03/13 04:47:00;;;;;;;40.10;15.38;;;;;;;-3.96;100.00;99887.53;4354075;32;20125;-74
2022/03/13 04:49:27;;;;;;;41.22;14.32;;;;;;;-3.92;100.00;99896.84;4356233;32;20159;-74
2022/03/13 04:51:54;;;;;;;44.80;15.40;;;;;;;-4.32;100.00;99824.03;4356234;32;20048;-74
2022/03/13 04:54:21;;;;;;;47.20;16.80;;;;;;;-4.29;100.00;99834.28;4369566;32;20047;-74
2022/03/13 04:56:48;;;;;;;50.70;17.58;;;;;;;-3.96;100.00;99882.28;4368095;32;20068;-74
2022/03/13 04:59:14;;;;;;;53.53;15.88;;;;;;;-3.92;100.00;99889.75;4340621;32;20996;-74
2022/03/13 05:01:41;;;;;;;49.95;15.77;;;;;;;-3.91;100.00;99890.59;4350518;32;20051;-75
2022/03/13 05:04:08;;;;;;;46.08;15.95;;;;;;;-3.96;100.00;99898.06;4345253;32;20039;-75
2022/03/13 05:06:36;;;;;;;48.92;14.90;;;;;;;-4.02;100.00;99895.00;4340500;33;20044;-75
2022/03/13 05:09:04;;;;;;;44.25;15.43;;;;;;;-4.03;100.00;99890.69;4354750;32;20044;-75
2022/03/13 05:11:30;;;;;;;57.92;17.15;;;;;;;-4.34;100.00;99836.47;4358157;32;20055;-75
2022/03/13 05:13:57;;;;;;;47.88;16.23;;;;;;;-4.10;100.00;99881.69;4369164;32;20069;-75
2022/03/13 05:16:23;;;;;;;45.55;15.30;;;;;;;-4.39;100.00;99840.37;4369903;32;20062;-75
2022/03/13 05:18:50;;;;;;;47.88;15.82;;;;;;;-4.04;100.00;99883.78;4367402;32;20079;-77
2022/03/13 05:21:18;;;;;;;49.63;16.48;;;;;;;-4.34;100.00;99836.47;4354405;32;20067;-75
2022/03/13 05:23:44;;;;;;;49.95;16.20;;;;;;;-4.24;100.00;99861.03;4364677;32;20085;-74
2022/03/13 05:26:11;;;;;;;53.75;17.33;;;;;;;-4.14;100.00;99885.56;4355301;32;20032;-74
2022/03/13 05:28:37;;;;;;;46.03;16.20;;;;;;;-4.07;100.00;99901.63;4355195;32;20056;-73
2022/03/13 05:31:03;;;;;;;43.13;16.52;;;;;;;-4.06;100.00;99898.84;4353117;32;20039;-74
2022/03/13 05:33:30;;;;;;;48.45;16.60;;;;;;;-4.26;100.00;99865.56;4355594;32;20125;-73
2022/03/13 05:35:59;;;;;;;45.10;15.95;;;;;;;-4.02;100.00;99900.28;4355525;32;20056;-74
2022/03/13 05:38:25;;;;;;;45.67;17.62;;;;;;;-4.35;100.00;99850.63;4355879;32;20051;-74
2022/03/13 05:40:52;;;;;;;49.25;15.98;;;;;;;-4.38;100.00;99852.53;4341678;32;20399;-73
2022/03/13 05:43:22;;;;;;;54.10;15.57;;;;;;;-4.03;100.00;99903.84;4351483;32;20047;-73
2022/03/13 05:45:48;;;;;;;52.62;16.50;;;;;;;-4.30;100.00;99854.50;4358031;32;20068;-74
2022/03/13 05:48:18;;;;;;;40.92;14.18;;;;;;;-4.27;100.00;99858.66;4340828;32;20040;-81
2022/03/13 05:50:46;;;;;;;43.28;14.43;;;;;;;-3.90;100.00;99913.31;4342847;32;20084;-78
2022/03/13 05:53:12;;;;;;;37.05;14.55;;;;;;;-3.89;100.00;99915.00;4355453;32;20039;-77
2022/03/13 05:55:39;;;;;;;35.45;13.85;;;;;;;-4.22;100.00;99851.19;4344569;32;20452;-73
2022/03/13 05:58:05;;;;;;;46.72;15.50;;;;;;;-3.94;100.00;99896.13;4354151;32;20040;-73
2022/03/13 06:00:32;;;;;;;45.55;13.43;;;;;;;-3.89;100.00;99889.50;4341309;33;20452;-73
2022/03/13 06:03:00;;;;;;;43.45;13.70;;;;;;;-3.83;100.00;99893.38;4350470;33;20377;-73
2022/03/13 06:05:31;;;;;;;44.10;15.25;;;;;;;-3.78;100.00;99901.72;4350000;32;20039;-74
2022/03/13 06:07:57;;;;;;;42.62;15.52;;;;;;;-4.09;100.00;99850.94;4365694;32;20426;-73
2022/03/13 06:10:25;;;;;;;26.77;11.12;;;;;;;-3.73;100.00;99899.50;4357879;32;20170;-74
2022/03/13 06:12:52;;;;;;;39.90;11.82;;;;;;;-3.69;100.00;99895.59;4351420;32;20076;-75
2022/03/13 06:15:19;;;;;;;32.05;11.15;;;;;;;-3.52;100.00;99906.47;4361840;32;20036;-75
2022/03/13 06:17:48;;;;;;;29.20;11.23;;;;;;;-3.44;100.00;99914.50;4374574;32;20081;-74
2022/03/13 06:20:16;;;;;;;26.23;10.38;;;;;;;-3.29;100.00;99901.75;4370620;32;20047;-74
2022/03/13 06:22:45;;;;;;;28.02;10.45;;;;;;;-3.14;100.00;99905.62;4368952;32;20430;-76
2022/03/13 06:25:13;;;;;;;38.13;11.52;;;;;;;-2.94;100.00;99906.41;4368840;32;20491;-77
2022/03/13 06:27:41;;;;;;;29.17;9.57;;;;;;;-3.02;100.00;99877.31;4372425;32;20106;-79
2022/03/13 06:30:16;;;;;;;26.33;9.43;;;;;;;-2.65;100.00;99916.09;4364438;32;20039;-75
2022/03/13 06:32:45;;;;;;;22.77;9.82;;;;;;;-2.56;100.00;99909.94;4344145;32;20330;-74
2022/03/13 06:35:13;;;;;;;24.67;8.10;;;;;;;-2.32;99.03;99921.81;4355217;32;20098;-73
2022/03/13 06:37:41;;;;;;;21.70;8.75;;;;;;;-2.40;94.59;99879.50;4356764;32;20052;-73
2022/03/13 06:40:09;;;;;;;17.95;8.50;;;;;;;-2.20;90.54;99869.72;4372059;32;20047;-74
2022/03/13 06:42:37;;;;;;;18.67;8.45;;;;;;;-1.64;85.88;99928.59;4371125;32;20065;-74
2022/03/13 06:45:05;;;;;;;19.25;8.40;;;;;;;-1.40;82.74;99921.91;4354247;32;20442;-76
2022/03/13 06:47:31;;;;;;;18.87;8.05;;;;;;;-1.23;80.09;99923.69;4365784;32;20091;-75
2022/03/13 06:49:58;;;;;;;25.73;8.77;;;;;;;-1.29;76.76;99895.25;4357426;32;20065;-76
2022/03/13 06:52:25;;;;;;;18.90;8.60;;;;;;;-0.87;73.08;99923.66;4343823;32;20450;-73
2022/03/13 06:54:52;;;;;;;19.62;8.60;;;;;;;-0.98;72.91;99886.91;4355860;32;20051;-77
2022/03/13 06:57:18;;;;;;;21.92;8.75;;;;;;;-0.50;70.98;99930.53;4355341;32;20369;-73
2022/03/13 06:59:51;;;;;;;20.30;9.20;;;;;;;-0.69;68.60;99877.84;4358187;32;20077;-73
2022/03/13 07:02:18;;;;;;;18.12;7.80;;;;;;;-0.38;66.38;99899.38;4355818;32;20379;-76
2022/03/13 07:04:44;;;;;;;20.30;8.43;;;;;;;-0.24;65.17;99897.91;4354646;32;20091;-79
2022/03/13 07:07:10;;;;;;;25.90;9.10;;;;;;;0.20;61.65;99947.28;4356464;32;20044;-75
2022/03/13 07:09:37;;;;;;;19.42;8.07;;;;;;;0.42;61.14;99945.88;4356063;32;20047;-75
2022/03/13 07:12:05;;;;;;;16.77;8.20;;;;;;;0.59;60.16;99947.56;4357051;32;20039;-73
2022/03/13 07:14:33;;;;;;;17.42;8.07;;;;;;;0.69;59.87;99947.41;4357801;32;20032;-73
2022/03/13 07:16:59;;;;;;;22.58;8.27;;;;;;;0.57;59.33;99906.31;4354560;32;20083;-73
2022/03/13 07:19:26;;;;;;;11.70;6.28;;;;;;;1.26;54.85;99949.25;4364857;32;20483;-75
2022/03/13 07:21:52;;;;;;;17.58;6.80;;;;;;;1.45;52.67;99938.31;4358331;32;20027;-73
2022/03/13 07:24:19;;;;;;;17.60;6.47;;;;;;;1.73;50.53;99934.44;4378125;32;20073;-73
2022/03/13 07:26:45;;;;;;;15.40;7.00;;;;;;;1.85;49.62;99954.34;4385493;32;20398;-75
2022/03/13 07:29:11;;;;;;;19.85;6.60;;;;;;;0.98;48.43;99793.13;4367575;32;20409;-74
2022/03/13 07:31:38;;;;;;;22.45;8.23;;;;;;;1.79;49.60;99908.03;4380792;32;20467;-73
2022/03/13 07:34:05;;;;;;;14.68;7.07;;;;;;;1.88;48.23;99918.63;4376442;32;20444;-74
2022/03/13 07:36:31;;;;;;;20.25;7.90;;;;;;;2.16;47.52;99941.09;4371184;32;20053;-73
2022/03/13 07:38:58;;;;;;;22.92;7.12;;;;;;;2.33;47.34;99954.28;4357523;32;20039;-74
2022/03/13 07:41:28;;;;;;;22.55;7.35;;;;;;;2.41;46.86;99964.06;4367617;32;20031;-74
2022/03/13 07:43:54;;;;;;;17.40;8.43;;;;;;;2.16;46.42;99914.53;4371261;32;20051;-74
2022/03/13 07:46:22;;;;;;;17.33;7.68;;;;;;;2.85;43.45;99966.16;4370166;32;20403;-73
2022/03/13 07:48:55;;;;;;;26.73;8.77;;;;;;;3.00;43.58;99963.53;4374572;32;20065;-74
2022/03/13 07:51:21;;;;;;;17.20;8.50;;;;;;;3.10;42.18;99953.50;4360666;32;20043;-77
2022/03/13 07:53:48;;;;;;;16.00;7.30;;;;;;;3.31;41.38;99965.31;4373456;32;20059;-73
2022/03/13 07:56:15;;;;;;;14.70;6.90;;;;;;;3.37;41.63;99965.44;4371537;32;20052;-74
2022/03/13 07:58:42;;;;;;;15.52;8.85;;;;;;;3.31;41.54;99944.84;4369380;32;20095;-75
2022/03/13 08:01:08;;;;;;;16.23;7.82;;;;;;;3.14;40.59;99920.19;4370260;32;20031;-76
2022/03/13 08:03:36;;;;;;;15.15;8.00;;;;;;;3.58;40.08;99959.41;4368137;32;20047;-75
2022/03/13 08:06:03;;;;;;;21.80;8.60;;;;;;;3.52;41.03;99938.81;4371595;32;20035;-74
2022/03/13 08:08:30;;;;;;;17.98;8.60;;;;;;;3.54;40.96;99949.28;4356263;32;20019;-73
2022/03/13 08:10:58;;;;;;;12.80;6.55;;;;;;;3.75;38.86;99961.91;4369334;32;20043;-74
2022/03/13 08:13:24;;;;;;;20.25;8.43;;;;;;;3.77;38.86;99950.06;4362960;32;20047;-77
2022/03/13 08:15:51;;;;;;;22.85;9.88;;;;;;;3.59;39.20;99926.44;4364247;32;20087;-74
2022/03/13 08:18:17;;;;;;;23.55;9.90;;;;;;;3.84;39.21;99960.00;4360027;32;20039;-74
2022/03/13 08:20:44;;;;;;;19.80;7.90;;;;;;;3.95;38.27;99957.69;4369063;32;20073;-75
2022/03/13 08:23:10;;;;;;;21.58;8.65;;;;;;;3.95;39.04;99947.03;4359056;32;20339;-74
2022/03/13 08:25:38;;;;;;;25.00;9.32;;;;;;;3.88;38.61;99919.47;4355569;32;20427;-76
2022/03/13 08:28:06;;;;;;;20.05;9.82;;;;;;;4.19;37.97;99963.75;4361392;32;20402;-74
2022/03/13 08:30:33;;;;;;;21.00;8.77;;;;;;;4.25;38.93;99960.34;4353843;32;20039;-75
2022/03/13 08:33:00;;;;;;;18.52;8.10;;;;;;;4.08;37.66;99930.38;4354656;32;20097;-75
2022/03/13 08:35:28;;;;;;;14.98;7.57;;;;;;;4.29;37.15;99969.63;4355315;32;20369;-74
2022/03/13 08:37:55;;;;;;;17.70;6.78;;;;;;;4.24;37.48;99972.00;4337795;33;20350;-74
2022/03/13 08:40:27;;;;;;;19.08;7.37;;;;;;;4.21;37.24;99976.91;4354806;32;20806;-74
2022/03/13 08:42:53;;;;;;;18.75;7.57;;;;;;;4.26;37.45;99970.00;4341974;32;20057;-75
2022/03/13 08:45:20;;;;;;;17.80;8.35;;;;;;;4.32;37.44;99963.94;4354036;32;20083;-73
2022/03/13 08:47:47;;;;;;;16.33;7.05;;;;;;;4.07;35.89;99896.75;4339070;33;20391;-74
2022/03/13 08:50:16;;;;;;;17.52;7.18;;;;;;;4.42;36.25;99930.78;4354603;32;20094;-74
2022/03/13 08:52:43;;;;;;;17.75;7.37;;;;;;;4.35;36.03;99931.53;4353303;33;20028;-75
2022/03/13 08:55:15;;;;;;;15.75;7.85;;;;;;;4.78;34.42;99967.31;4354818;32;20077;-75
2022/03/13 08:57:42;;;;;;;14.50;6.57;;;;;;;4.85;34.35;99952.19;4355482;32;20369;-75
2022/03/13 09:00:14;;;;;;;21.90;8.38;;;;;;;4.89;34.55;99969.50;4337758;32;20051;-74
2022/03/13 09:02:41;;;;;;;15.35;6.93;;;;;;;4.96;34.64;99959.69;4349773;32;20118;-74
2022/03/13 09:05:08;;;;;;;17.08;7.85;;;;;;;5.02;34.85;99958.13;4338583;32;20308;-74
2022/03/13 09:07:34;;;;;;;13.73;6.28;;;;;;;5.02;33.85;99937.59;4349146;32;20066;-74
2022/03/13 09:10:06;;;;;;;15.57;6.37;;;;;;;4.76;35.05;99878.66;4350071;32;20036;-76
2022/03/13 09:12:32;;;;;;;12.88;5.22;;;;;;;4.87;35.25;99891.47;4357131;32;20071;-75
2022/03/13 09:14:59;;;;;;;13.23;5.82;;;;;;;4.92;34.17;99902.41;4367926;32;20065;-75
2022/03/13 09:17:26;;;;;;;10.07;5.37;;;;;;;4.98;34.47;99920.31;4368232;32;20031;-74
2022/03/13 09:19:53;;;;;;;11.88;5.25;;;;;;;5.02;34.17;99921.56;4363887;32;20046;-77
2022/03/13 09:22:21;;;;;;;13.70;6.70;;;;;;;5.27;33.66;99950.56;4372796;32;20047;-74
2022/03/13 09:24:50;;;;;;;17.48;7.12;;;;;;;5.14;34.00;99918.38;4367818;32;20450;-75
2022/03/13 09:27:17;;;;;;;28.38;9.70;;;;;;;5.52;34.15;99963.47;4352877;32;20039;-75
2022/03/13 09:29:43;;;;;;;21.95;7.87;;;;;;;5.16;33.08;99937.72;4363315;32;20050;-81
2022/03/13 09:32:11;;;;;;;18.92;7.10;;;;;;;5.37;33.05;99967.06;4361055;32;20063;-75
2022/03/13 09:34:37;;;;;;;15.20;6.00;;;;;;;5.41;33.32;99965.66;4366798;32;20032;-72
2022/03/13 09:37:04;;;;;;;13.00;6.30;;;;;;;5.42;33.50;99927.25;4372730;32;20462;-73
2022/03/13 09:39:31;;;;;;;18.08;7.20;;;;;;;5.72;33.70;99968.97;4368108;32;20112;-74
2022/03/13 09:41:57;;;;;;;18.40;8.43;;;;;;;5.51;33.59;99929.78;4363227;32;20384;-74
2022/03/13 09:44:25;;;;;;;30.23;8.35;;;;;;;5.92;33.40;99964.59;4368046;32;20133;-74
2022/03/13 09:46:51;;;;;;;21.98;9.60;;;;;;;5.86;33.33;99927.13;4367298;32;20043;-74
2022/03/13 09:49:20;;;;;;;14.13;6.60;;;;;;;6.15;34.21;99969.69;4365526;32;20027;-74
2022/03/13 09:51:47;;;;;;;15.35;6.68;;;;;;;6.12;33.02;99974.59;4366836;32;20042;-76
2022/03/13 09:54:14;;;;;;;11.32;6.18;;;;;;;5.96;33.12;99957.00;4366824;32;20103;-74
2022/03/13 09:56:46;;;;;;;12.37;5.10;;;;;;;6.04;32.93;99956.88;4365877;32;20040;-74
2022/03/13 09:59:13;;;;;;;18.02;5.43;;;;;;;6.25;32.07;99963.97;4366725;32;20043;-74
2022/03/13 10:01:40;;;;;;;16.35;5.65;;;;;;;6.23;31.22;99949.16;4365875;32;20087;-77
2022/03/13 10:04:13;;;;;;;8.98;4.28;;;;;;;6.30;30.49;99960.69;4368212;32;20064;-73
2022/03/13 10:06:59;;;;;;;8.80;5.03;;;;;;;6.40;29.90;99966.53;4360452;32;20101;-73
2022/03/13 10:09:27;;;;;;;13.30;5.10;;;;;;;6.48;30.17;99957.50;4359694;32;20057;-75
2022/03/13 10:12:12;;;;;;;12.40;5.97;;;;;;;6.60;30.78;99960.41;4353761;32;20071;-75
2022/03/13 10:15:09;;;;;;;9.32;5.43;;;;;;;6.30;31.18;99915.22;4348846;32;20451;-75
2022/03/13 10:17:37;;;;;;;11.70;5.70;;;;;;;6.74;31.85;99956.75;4351787;32;20061;-75
2022/03/13 10:20:23;;;;;;;12.45;6.07;;;;;;;6.73;31.80;99960.44;4338877;33;20044;-74
2022/03/13 10:23:02;;;;;;;9.63;5.03;;;;;;;6.64;31.86;99916.19;4338228;33;20044;-75
2022/03/13 10:25:29;;;;;;;13.73;5.97;;;;;;;6.97;31.50;99952.88;4325873;33;20049;-75
2022/03/13 10:28:22;;;;;;;12.65;5.70;;;;;;;7.07;29.97;99945.28;4351717;32;20043;-74
2022/03/13 10:30:55;;;;;;;12.40;6.32;;;;;;;6.98;29.37;99946.50;4353243;33;20043;-75
2022/03/13 10:33:21;;;;;;;13.18;6.30;;;;;;;6.62;29.54;99899.47;4354594;32;20092;-74
2022/03/13 10:35:48;;;;;;;12.98;5.78;;;;;;;7.07;30.56;99946.09;4353164;33;20065;-75
2022/03/13 10:38:20;;;;;;;11.85;6.82;;;;;;;6.95;30.49;99904.06;4351055;33;20175;-74
2022/03/13 10:40:56;;;;;;;13.93;6.22;;;;;;;7.16;30.87;99906.53;4353757;33;20036;-74
2022/03/13 10:43:27;;;;;;;13.50;6.65;;;;;;;7.44;30.85;99937.69;4343258;33;20111;-74
2022/03/13 10:45:54;;;;;;;14.43;6.72;;;;;;;7.28;32.21;99883.47;4336344;33;20028;-75
2022/03/13 10:48:36;;;;;;;19.98;7.03;;;;;;;7.34;31.97;99875.62;4351259;32;20090;-74
2022/03/13 10:51:05;;;;;;;18.95;8.55;;;;;;;7.98;32.33;99951.84;4367117;32;20179;-74
2022/03/13 10:53:32;;;;;;;16.90;8.23;;;;;;;7.88;32.15;99904.00;4356302;32;20049;-74
2022/03/13 10:56:08;;;;;;;13.60;6.82;;;;;;;8.14;32.47;99939.81;4369044;32;20372;-74
2022/03/13 10:58:40;;;;;;;13.95;7.40;;;;;;;8.02;31.57;99898.59;4357098;32;20077;-74
2022/03/13 11:01:10;;;;;;;19.40;6.70;;;;;;;8.10;31.09;99933.22;4370456;32;20129;-75
2022/03/13 11:03:47;;;;;;;16.05;7.62;;;;;;;7.94;31.58;99889.72;4348357;32;20304;-77
2022/03/13 11:06:14;;;;;;;9.88;5.55;;;;;;;8.30;32.37;99927.81;4351216;32;20048;-76
2022/03/13 11:08:42;;;;;;;8.30;4.68;;;;;;;7.88;29.05;99933.50;4357674;32;20035;-75
2022/03/13 11:11:09;;;;;;;9.98;5.10;;;;;;;7.93;29.62;99939.06;4346894;32;20031;-75
2022/03/13 11:13:39;;;;;;;8.77;4.93;;;;;;;7.97;30.07;99908.09;4355440;32;20362;-78
2022/03/13 11:16:09;;;;;;;8.07;4.85;;;;;;;8.62;29.34;99950.19;4370641;32;20055;-75
2022/03/13 11:18:38;;;;;;;7.53;4.47;;;;;;;8.44;28.23;99880.28;4369786;32;20452;-75
2022/03/13 11:21:08;;;;;;;10.60;4.65;;;;;;;8.90;27.76;99906.84;4355535;32;20051;-75
2022/03/13 11:23:36;;;;;;;9.90;4.40;;;;;;;9.38;28.03;99935.03;4347826;32;20040;-75
2022/03/13 11:26:05;;;;;;;8.90;4.70;;;;;;;9.05;28.26;99925.34;4353073;32;20036;-75